Time;durP1;ratioP1;P1;durP2;ratioP2;P2;SDS_P1;SDS_P2;PMS_P1;PMS_P2;Temp;Humidity;BMP_temperature;BMP_pressure;BME280_temperature;BME280_humidity;BME280_pressure;Samples;Min_cycle;Max_cycle;Signal;HPM_P1;HPM_P2
2022/10/21 00:00:48;;;;;;;10.52;6.78;;;;;;;;;;5057037;28;20656;-74
2022/10/21 00:03:14;;;;;;;10.80;7.43;;;;;;;;;;5056752;28;20518;-74
2022/10/21 00:05:40;;;;;;;14.07;6.78;;;;;;;;;;5056962;28;20359;-73
2022/10/21 00:08:06;;;;;;;12.00;7.00;;;;;;;;;;5057026;28;20031;-74
2022/10/21 00:10:32;;;;;;;12.43;6.85;;;;;;;;;;5057008;28;20434;-74
2022/10/21 00:12:58;;;;;;;9.05;6.50;;;;;;;;;;5056326;28;20032;-74
2022/10/21 00:15:24;;;;;;;11.02;6.43;;;;;;;;;;5057073;28;20029;-74
2022/10/21 00:17:50;;;;;;;10.13;6.70;;;;;;;;;;5056914;28;20029;-74
2022/10/21 00:20:17;;;;;;;11.20;7.32;;;;;;;;;;5039193;28;20025;-74
2022/10/21 00:22:43;;;;;;;10.63;7.32;;;;;;;;;;5056540;28;20128;-74
2022/10/21 00:25:09;;;;;;;10.98;7.28;;;;;;;;;;5056969;28;20041;-74
2022/10/21 00:27:36;;;;;;;10.65;7.22;;;;;;;;;;5056575;28;20023;-73
2022/10/21 00:30:03;;;;;;;12.45;7.25;;;;;;;;;;5056963;28;20032;-74
2022/10/21 00:32:29;;;;;;;10.38;6.57;;;;;;;;;;5056899;28;20025;-74
2022/10/21 00:34:55;;;;;;;10.77;7.32;;;;;;;;;;5056626;28;20300;-75
2022/10/21 00:37:21;;;;;;;10.27;7.00;;;;;;;;;;5056625;28;20035;-74
2022/10/21 00:39:47;;;;;;;11.05;6.65;;;;;;;;;;5056637;28;20029;-74
2022/10/21 00:42:15;;;;;;;10.02;6.72;;;;;;;;;;5056667;28;20029;-75
2022/10/21 00:44:41;;;;;;;10.02;6.80;;;;;;;;;;5056571;28;20025;-75
2022/10/21 00:47:08;;;;;;;11.07;7.32;;;;;;;;;;5038632;28;20373;-74
2022/10/21 00:49:40;;;;;;;11.80;7.45;;;;;;;;;;5056451;28;20308;-74
2022/10/21 00:52:08;;;;;;;11.32;7.13;;;;;;;;;;5056494;28;20453;-74
2022/10/21 00:54:35;;;;;;;11.95;7.32;;;;;;;;;;5056444;28;20320;-74
2022/10/21 00:57:01;;;;;;;10.43;7.30;;;;;;;;;;5056401;28;20303;-74
2022/10/21 00:59:30;;;;;;;10.90;6.57;;;;;;;;;;5056414;28;20466;-74
2022/10/21 01:01:56;;;;;;;13.10;7.53;;;;;;;;;;5056516;28;20029;-74
2022/10/21 01:04:23;;;;;;;12.20;7.05;;;;;;;;;;5056343;28;20060;-74
2022/10/21 01:06:49;;;;;;;10.70;6.97;;;;;;;;;;5056285;28;20024;-74
2022/10/21 01:09:15;;;;;;;11.32;7.30;;;;;;;;;;5056449;28;20029;-74
2022/10/21 01:11:45;;;;;;;11.20;7.22;;;;;;;;;;5038604;28;20036;-74
2022/10/21 01:14:11;;;;;;;12.93;7.60;;;;;;;;;;5056521;28;20108;-74
2022/10/21 01:16:37;;;;;;;13.23;7.63;;;;;;;;;;5056233;28;20163;-74
2022/10/21 01:19:30;;;;;;;10.98;7.50;;;;;;;;;;5056466;28;20032;-74
2022/10/21 01:22:03;;;;;;;12.98;7.53;;;;;;;;;;4975499;28;20034;-74
2022/10/21 01:24:31;;;;;;;9.63;6.88;;;;;;;;;;4975432;28;20054;-74
2022/10/21 01:27:05;;;;;;;12.95;7.10;;;;;;;;;;4978791;28;20089;-74
2022/10/21 01:29:52;;;;;;;8.25;6.72;;;;;;;;;;4979085;28;20030;-74
2022/10/21 01:32:23;;;;;;;11.93;7.30;;;;;;;;;;4979090;28;20592;-74
2022/10/21 01:35:04;;;;;;;10.85;6.90;;;;;;;;;;4978919;28;20027;-74
2022/10/21 01:37:30;;;;;;;12.90;7.35;;;;;;;;;;4978763;28;20317;-74
2022/10/21 01:40:01;;;;;;;13.65;7.15;;;;;;;;;;4978949;28;20318;-74
2022/10/21 01:42:35;;;;;;;12.68;7.20;;;;;;;;;;4978852;28;20038;-74
2022/10/21 01:45:27;;;;;;;13.55;7.40;;;;;;;;;;4978977;28;20038;-74
2022/10/21 01:47:55;;;;;;;10.23;7.05;;;;;;;;;;4977745;28;20055;-74
2022/10/21 01:50:26;;;;;;;10.70;7.78;;;;;;;;;;4978683;28;20190;-74
2022/10/21 01:52:54;;;;;;;12.43;7.72;;;;;;;;;;4978351;28;20442;-74
2022/10/21 01:55:22;;;;;;;17.00;8.15;;;;;;;;;;4978667;28;20046;-74
2022/10/21 01:57:53;;;;;;;15.18;7.78;;;;;;;;;;4989060;28;20321;-73
2022/10/21 02:00:19;;;;;;;16.13;7.83;;;;;;;;;;5059066;28;20035;-74
2022/10/21 02:02:47;;;;;;;15.57;8.05;;;;;;;;;;5059029;28;20415;-74
2022/10/21 02:05:15;;;;;;;14.80;9.27;;;;;;;;;;5059191;28;20028;-74
2022/10/21 02:07:42;;;;;;;25.13;9.10;;;;;;;;;;5058946;28;20025;-74
2022/10/21 02:10:08;;;;;;;13.82;8.13;;;;;;;;;;5059078;28;20024;-74
2022/10/21 02:12:35;;;;;;;13.70;9.52;;;;;;;;;;5058952;28;20035;-74
2022/10/21 02:15:02;;;;;;;20.13;9.90;;;;;;;;;;5058894;28;20025;-74
2022/10/21 02:17:28;;;;;;;19.23;10.38;;;;;;;;;;5059039;28;20021;-74
2022/10/21 02:19:57;;;;;;;17.13;9.63;;;;;;;;;;5058941;28;20048;-74
2022/10/21 02:22:24;;;;;;;18.02;10.07;;;;;;;;;;5058568;28;20079;-74
2022/10/21 02:24:50;;;;;;;16.58;9.57;;;;;;;;;;5058780;28;20029;-74
2022/10/21 02:27:16;;;;;;;18.98;10.65;;;;;;;;;;5058769;28;20078;-74
2022/10/21 02:29:45;;;;;;;14.63;9.35;;;;;;;;;;5058664;28;20500;-74
2022/10/21 02:32:11;;;;;;;17.92;9.95;;;;;;;;;;5058632;28;20419;-74
2022/10/21 02:34:51;;;;;;;15.07;9.57;;;;;;;;;;5058540;28;20111;-74
2022/10/21 02:37:35;;;;;;;16.10;10.77;;;;;;;;;;5040520;28;20037;-74
2022/10/21 02:40:08;;;;;;;16.40;10.32;;;;;;;;;;5058426;28;20110;-74
2022/10/21 02:42:37;;;;;;;17.63;10.38;;;;;;;;;;5058580;28;20045;-73
2022/10/21 02:45:03;;;;;;;15.63;10.60;;;;;;;;;;5058639;28;20292;-73
2022/10/21 02:47:29;;;;;;;15.60;9.27;;;;;;;;;;5041043;28;20029;-73
2022/10/21 02:49:55;;;;;;;15.50;9.75;;;;;;;;;;5058222;28;20108;-73
2022/10/21 02:52:21;;;;;;;14.13;9.40;;;;;;;;;;5058006;28;20064;-73
2022/10/21 02:54:47;;;;;;;17.08;9.80;;;;;;;;;;5058314;28;20041;-73
2022/10/21 02:57:13;;;;;;;17.27;9.80;;;;;;;;;;5058062;28;20035;-73
2022/10/21 02:59:39;;;;;;;16.70;9.57;;;;;;;;;;5058293;28;20112;-73
2022/10/21 03:02:05;;;;;;;18.00;9.73;;;;;;;;;;5058019;28;20103;-73
2022/10/21 03:04:31;;;;;;;15.40;10.27;;;;;;;;;;5040330;28;20033;-73
2022/10/21 03:06:57;;;;;;;17.92;10.07;;;;;;;;;;5057640;28;20219;-73
2022/10/21 03:09:24;;;;;;;19.50;10.77;;;;;;;;;;5057786;28;20033;-73
2022/10/21 03:11:50;;;;;;;19.02;10.63;;;;;;;;;;5057999;28;20064;-73
2022/10/21 03:14:16;;;;;;;17.13;9.55;;;;;;;;;;5057976;28;20025;-73
2022/10/21 03:16:42;;;;;;;15.13;10.45;;;;;;;;;;5057837;28;20063;-73
2022/10/21 03:19:08;;;;;;;16.33;10.63;;;;;;;;;;5057752;28;20358;-74
2022/10/21 03:21:34;;;;;;;18.23;10.32;;;;;;;;;;5057521;28;20033;-73
2022/10/21 03:24:01;;;;;;;22.60;11.30;;;;;;;;;;5057283;28;20056;-73
2022/10/21 03:26:27;;;;;;;19.95;11.55;;;;;;;;;;5045685;28;20059;-73
2022/10/21 03:28:53;;;;;;;19.05;10.95;;;;;;;;;;5037550;28;20115;-73
2022/10/21 03:31:19;;;;;;;15.95;11.68;;;;;;;;;;5037214;28;20432;-74
2022/10/21 03:33:45;;;;;;;21.30;11.18;;;;;;;;;;5037326;28;20025;-74
2022/10/21 03:36:11;;;;;;;18.50;11.23;;;;;;;;;;5037549;28;20026;-74
2022/10/21 03:38:37;;;;;;;24.25;12.18;;;;;;;;;;5037203;28;20068;-73
2022/10/21 03:41:03;;;;;;;22.48;11.48;;;;;;;;;;5037328;28;20017;-75
2022/10/21 03:43:29;;;;;;;18.25;10.82;;;;;;;;;;5019313;28;20040;-74
2022/10/21 03:45:55;;;;;;;23.42;11.43;;;;;;;;;;5037369;28;20104;-74
2022/10/21 03:48:21;;;;;;;16.00;11.65;;;;;;;;;;5036211;28;20450;-74
2022/10/21 03:50:47;;;;;;;19.63;11.52;;;;;;;;;;5036929;28;20056;-74
2022/10/21 03:53:13;;;;;;;30.85;17.75;;;;;;;;;;5036758;28;20037;-74
2022/10/21 03:55:39;;;;;;;28.02;15.43;;;;;;;;;;5037040;28;20037;-74
2022/10/21 03:58:05;;;;;;;38.33;17.73;;;;;;;;;;5037337;28;20030;-74
2022/10/21 04:00:31;;;;;;;127.82;40.65;;;;;;;;;;5037323;28;20082;-74
2022/10/21 04:02:57;;;;;;;124.75;41.85;;;;;;;;;;5036940;28;20026;-74
2022/10/21 04:05:23;;;;;;;387.30;114.50;;;;;;;;;;5036932;28;20025;-74
2022/10/21 04:07:49;;;;;;;484.00;157.63;;;;;;;;;;5037097;28;20021;-74
2022/10/21 04:10:15;;;;;;;358.42;130.20;;;;;;;;;;5036909;28;20022;-74
2022/10/21 04:12:41;;;;;;;192.20;77.97;;;;;;;;;;5037192;28;20091;-75
2022/10/21 04:15:08;;;;;;;106.05;50.28;;;;;;;;;;5019457;28;20037;-74
2022/10/21 04:17:34;;;;;;;65.72;35.30;;;;;;;;;;5036879;28;20431;-74
2022/10/21 04:20:00;;;;;;;102.30;43.13;;;;;;;;;;5036864;28;20021;-74
2022/10/21 04:22:26;;;;;;;155.57;61.25;;;;;;;;;;5036538;28;20029;-74
2022/10/21 04:24:52;;;;;;;166.18;64.28;;;;;;;;;;5036849;28;20030;-74
2022/10/21 04:27:18;;;;;;;199.27;73.10;;;;;;;;;;5036749;28;20053;-74
2022/10/21 04:29:44;;;;;;;159.48;59.95;;;;;;;;;;5037074;28;20021;-74
2022/10/21 04:32:10;;;;;;;71.15;28.95;;;;;;;;;;5036720;28;20289;-74
2022/10/21 04:34:36;;;;;;;48.88;19.45;;;;;;;;;;5036663;28;20289;-75
2022/10/21 04:37:02;;;;;;;63.17;26.50;;;;;;;;;;5036717;28;20030;-74
2022/10/21 04:39:28;;;;;;;46.22;21.77;;;;;;;;;;5036938;28;20029;-74
2022/10/21 04:41:54;;;;;;;51.28;21.63;;;;;;;;;;5036620;28;20022;-74
2022/10/21 04:44:21;;;;;;;39.05;17.73;;;;;;;;;;5036715;28;20025;-75
2022/10/21 04:46:47;;;;;;;54.90;21.02;;;;;;;;;;5036715;28;20032;-74
2022/10/21 04:49:13;;;;;;;68.70;24.52;;;;;;;;;;5019090;28;20063;-74
2022/10/21 04:51:39;;;;;;;56.83;22.23;;;;;;;;;;5036750;28;20289;-75
2022/10/21 04:54:05;;;;;;;59.65;23.02;;;;;;;;;;5036624;28;20041;-74
2022/10/21 04:56:31;;;;;;;98.05;43.03;;;;;;;;;;5036470;28;20033;-74
2022/10/21 04:58:57;;;;;;;196.68;101.25;;;;;;;;;;5036673;28;20036;-74
2022/10/21 05:01:23;;;;;;;70.95;37.13;;;;;;;;;;5022613;28;20032;-74
2022/10/21 05:03:49;;;;;;;30.15;17.70;;;;;;;;;;5040430;28;20021;-74
2022/10/21 05:06:15;;;;;;;23.88;13.25;;;;;;;;;;5022648;28;20140;-74
2022/10/21 05:08:41;;;;;;;20.08;11.98;;;;;;;;;;5040136;28;20359;-75
2022/10/21 05:11:07;;;;;;;23.10;13.57;;;;;;;;;;5040135;28;20029;-75
2022/10/21 05:13:33;;;;;;;19.80;11.38;;;;;;;;;;5040112;28;20437;-74
2022/10/21 05:16:01;;;;;;;25.10;13.32;;;;;;;;;;5040008;28;20124;-75
2022/10/21 05:18:27;;;;;;;24.38;14.45;;;;;;;;;;5040010;28;20461;-75
2022/10/21 05:20:53;;;;;;;30.35;19.13;;;;;;;;;;5040082;28;20033;-75
2022/10/21 05:23:20;;;;;;;32.10;18.65;;;;;;;;;;5039534;28;20045;-75
2022/10/21 05:25:47;;;;;;;25.33;15.63;;;;;;;;;;5040038;28;20037;-75
2022/10/21 05:28:13;;;;;;;27.30;14.50;;;;;;;;;;5039749;28;20107;-73
2022/10/21 05:30:39;;;;;;;20.67;13.23;;;;;;;;;;5039835;28;20402;-74
2022/10/21 05:33:05;;;;;;;25.05;14.30;;;;;;;;;;5039760;28;20361;-74
2022/10/21 05:35:31;;;;;;;25.67;15.57;;;;;;;;;;5039643;28;20319;-75
2022/10/21 05:37:57;;;;;;;26.17;15.13;;;;;;;;;;5039696;28;20028;-75
2022/10/21 05:40:24;;;;;;;25.75;15.80;;;;;;;;;;5039599;28;20311;-74
2022/10/21 05:42:50;;;;;;;26.15;15.30;;;;;;;;;;5039505;28;20029;-75
2022/10/21 05:45:16;;;;;;;31.45;16.25;;;;;;;;;;5039501;28;20358;-75
2022/10/21 05:47:42;;;;;;;25.60;15.82;;;;;;;;;;5039721;28;20044;-74
2022/10/21 05:50:09;;;;;;;24.88;15.18;;;;;;;;;;5039457;28;20026;-75
2022/10/21 05:52:35;;;;;;;26.35;15.93;;;;;;;;;;5039332;28;20033;-75
2022/10/21 05:55:01;;;;;;;26.60;16.38;;;;;;;;;;5039404;28;20033;-75
2022/10/21 05:57:27;;;;;;;23.50;15.20;;;;;;;;;;5039280;28;20033;-75
2022/10/21 05:59:53;;;;;;;31.38;17.25;;;;;;;;;;5039522;28;20048;-74
2022/10/21 06:02:19;;;;;;;27.45;16.90;;;;;;;;;;5039194;28;20412;-74
2022/10/21 06:04:45;;;;;;;32.03;17.95;;;;;;;;;;5039145;28;20037;-74
2022/10/21 06:07:11;;;;;;;30.38;17.48;;;;;;;;;;5039221;28;20036;-74
2022/10/21 06:09:37;;;;;;;26.63;16.98;;;;;;;;;;5039237;28;20083;-74
2022/10/21 06:12:05;;;;;;;28.42;16.65;;;;;;;;;;5038435;28;20025;-74
2022/10/21 06:14:31;;;;;;;28.83;18.25;;;;;;;;;;5039018;28;20048;-74
2022/10/21 06:16:57;;;;;;;33.40;19.45;;;;;;;;;;5038923;28;20304;-75
2022/10/21 06:19:23;;;;;;;31.27;18.98;;;;;;;;;;5038847;28;20028;-74
2022/10/21 06:21:49;;;;;;;30.50;18.98;;;;;;;;;;5038803;28;20032;-74
2022/10/21 06:24:15;;;;;;;32.00;20.27;;;;;;;;;;5038510;28;20080;-74
2022/10/21 06:26:41;;;;;;;33.20;20.60;;;;;;;;;;5038779;28;20052;-75
2022/10/21 06:29:07;;;;;;;38.03;21.85;;;;;;;;;;5038595;28;20367;-74
2022/10/21 06:31:33;;;;;;;36.58;23.13;;;;;;;;;;5038542;28;20021;-75
2022/10/21 06:33:59;;;;;;;30.10;19.40;;;;;;;;;;5038862;28;20036;-75
2022/10/21 06:36:25;;;;;;;32.50;20.35;;;;;;;;;;5038606;28;20025;-76
2022/10/21 06:38:52;;;;;;;31.67;20.77;;;;;;;;;;5038658;28;20025;-75
2022/10/21 06:41:18;;;;;;;35.15;20.30;;;;;;;;;;5038570;28;20320;-74
2022/10/21 06:43:44;;;;;;;30.60;18.27;;;;;;;;;;5038211;28;20029;-74
2022/10/21 06:46:11;;;;;;;33.42;19.65;;;;;;;;;;5038433;28;20029;-75
2022/10/21 06:48:37;;;;;;;30.17;17.75;;;;;;;;;;5038523;28;20021;-75
2022/10/21 06:51:08;;;;;;;25.02;15.63;;;;;;;;;;5038408;28;20022;-75
2022/10/21 06:53:34;;;;;;;29.92;15.60;;;;;;;;;;5038167;28;20029;-74
2022/10/21 06:56:02;;;;;;;23.40;16.25;;;;;;;;;;5038221;28;20040;-75
2022/10/21 06:58:28;;;;;;;22.50;13.27;;;;;;;;;;5038227;28;20029;-75
2022/10/21 07:00:54;;;;;;;25.58;15.55;;;;;;;;;;5038358;28;20049;-75
2022/10/21 07:03:20;;;;;;;21.88;13.68;;;;;;;;;;5038048;28;20026;-75
2022/10/21 07:05:47;;;;;;;21.75;12.05;;;;;;;;;;5038284;28;20025;-75
2022/10/21 07:08:13;;;;;;;21.67;11.82;;;;;;;;;;5038061;28;20100;-75
2022/10/21 07:10:41;;;;;;;28.38;12.02;;;;;;;;;;5037995;28;20049;-74
2022/10/21 07:13:07;;;;;;;24.60;12.88;;;;;;;;;;5037861;28;20025;-74
2022/10/21 07:15:33;;;;;;;23.55;11.25;;;;;;;;;;5037841;28;20400;-75
2022/10/21 07:17:59;;;;;;;23.13;13.20;;;;;;;;;;5037770;28;20036;-74
2022/10/21 07:20:26;;;;;;;25.15;12.60;;;;;;;;;;5034477;28;20331;-75
2022/10/21 07:22:52;;;;;;;22.35;11.60;;;;;;;;;;5035286;28;20042;-75
2022/10/21 07:25:18;;;;;;;23.55;12.63;;;;;;;;;;5037511;28;20026;-74
2022/10/21 07:27:44;;;;;;;20.92;13.05;;;;;;;;;;5037019;28;20017;-74
2022/10/21 07:30:11;;;;;;;27.42;15.15;;;;;;;;;;5037304;28;20108;-74
2022/10/21 07:32:37;;;;;;;22.70;12.77;;;;;;;;;;5036404;28;20358;-74
2022/10/21 07:35:03;;;;;;;20.90;11.48;;;;;;;;;;5037378;28;20160;-74
2022/10/21 07:37:29;;;;;;;20.73;12.02;;;;;;;;;;5035274;28;20061;-74
2022/10/21 07:39:55;;;;;;;25.92;12.65;;;;;;;;;;5037389;28;20087;-74
2022/10/21 07:42:23;;;;;;;22.20;12.68;;;;;;;;;;5037406;28;20199;-75
2022/10/21 07:44:51;;;;;;;20.17;11.52;;;;;;;;;;5034678;28;20029;-74
2022/10/21 07:47:18;;;;;;;22.35;12.57;;;;;;;;;;5037189;28;20064;-74
2022/10/21 07:49:44;;;;;;;21.33;12.52;;;;;;;;;;5036328;28;20022;-75
2022/10/21 07:52:10;;;;;;;23.25;12.45;;;;;;;;;;5017253;28;20032;-75
2022/10/21 07:54:36;;;;;;;22.67;11.32;;;;;;;;;;5017420;28;20113;-74
2022/10/21 07:57:02;;;;;;;28.23;12.90;;;;;;;;;;5017361;28;20063;-74
2022/10/21 07:59:28;;;;;;;21.92;10.95;;;;;;;;;;5017400;28;20026;-74
2022/10/21 08:01:54;;;;;;;29.40;12.40;;;;;;;;;;5017349;28;20034;-75
2022/10/21 08:04:23;;;;;;;21.25;11.30;;;;;;;;;;5017400;28;20352;-74
2022/10/21 08:06:50;;;;;;;21.58;11.45;;;;;;;;;;5017209;28;20037;-74
2022/10/21 08:09:16;;;;;;;20.85;10.95;;;;;;;;;;5017159;28;20030;-75
2022/10/21 08:11:42;;;;;;;24.17;13.48;;;;;;;;;;5017376;28;20026;-74
2022/10/21 08:14:09;;;;;;;24.25;13.75;;;;;;;;;;5017323;28;20042;-74
2022/10/21 08:16:35;;;;;;;17.33;11.02;;;;;;;;;;5017344;28;20056;-74
2022/10/21 08:19:02;;;;;;;24.58;12.55;;;;;;;;;;5017238;28;20026;-74
2022/10/21 08:21:30;;;;;;;29.05;12.32;;;;;;;;;;5017115;28;20026;-74
2022/10/21 08:23:56;;;;;;;20.25;11.80;;;;;;;;;;5015591;28;20042;-75
2022/10/21 08:26:22;;;;;;;21.15;12.15;;;;;;;;;;5017079;28;20033;-74
2022/10/21 08:28:48;;;;;;;27.13;12.52;;;;;;;;;;5016756;28;20029;-74
2022/10/21 08:31:15;;;;;;;18.80;10.63;;;;;;;;;;5016980;28;20023;-74
2022/10/21 08:33:41;;;;;;;21.58;9.38;;;;;;;;;;5015915;28;20030;-74
2022/10/21 08:36:08;;;;;;;21.58;10.10;;;;;;;;;;5020766;28;20037;-74
2022/10/21 08:38:35;;;;;;;18.98;10.25;;;;;;;;;;5019835;28;20053;-75
2022/10/21 08:41:01;;;;;;;26.33;12.18;;;;;;;;;;5020952;28;20050;-74
2022/10/21 08:43:30;;;;;;;18.23;10.52;;;;;;;;;;5020813;28;20503;-74
2022/10/21 08:46:10;;;;;;;16.52;10.38;;;;;;;;;;5021072;28;20025;-74
2022/10/21 08:48:40;;;;;;;22.75;10.45;;;;;;;;;;5020744;28;20022;-75
2022/10/21 08:51:06;;;;;;;28.38;11.20;;;;;;;;;;5020547;28;20420;-75
2022/10/21 08:53:40;;;;;;;28.77;11.32;;;;;;;;;;5020915;28;20029;-74
2022/10/21 08:56:09;;;;;;;23.50;10.45;;;;;;;;;;5019633;28;20084;-74
2022/10/21 08:58:35;;;;;;;21.30;11.13;;;;;;;;;;5020677;28;20033;-73
2022/10/21 09:01:20;;;;;;;20.20;11.27;;;;;;;;;;5020202;28;20072;-75
2022/10/21 09:03:46;;;;;;;21.92;11.82;;;;;;;;;;5028260;28;20108;-74
2022/10/21 09:06:28;;;;;;;28.98;12.23;;;;;;;;;;5038493;28;20068;-74
2022/10/21 09:09:01;;;;;;;24.00;10.50;;;;;;;;;;5038159;28;20108;-74
2022/10/21 09:11:27;;;;;;;;;;;;;;;;;;5021457;28;20415;-74
2022/10/21 09:14:11;;;;;;;19.35;10.60;;;;;;;;;;5034453;28;19905;-74
2022/10/21 09:16:40;;;;;;;22.63;11.63;;;;;;;;;;5039709;28;20363;-74
2022/10/21 09:19:32;;;;;;;28.42;12.32;;;;;;;;;;5039853;28;20326;-74
2022/10/21 09:21:58;;;;;;;24.92;11.13;;;;;;;;;;4940324;29;20104;-74
2022/10/21 09:24:28;;;;;;;21.35;11.30;;;;;;;;;;4959461;28;20059;-74
2022/10/21 09:26:55;;;;;;;19.27;10.35;;;;;;;;;;4948411;28;20080;-74
2022/10/21 09:29:24;;;;;;;20.85;11.75;;;;;;;;;;4939127;29;20383;-74
2022/10/21 09:31:50;;;;;;;25.88;13.20;;;;;;;;;;4936322;29;20032;-74
2022/10/21 09:34:20;;;;;;;20.45;11.70;;;;;;;;;;4939354;29;20054;-74
2022/10/21 09:36:47;;;;;;;31.50;11.75;;;;;;;;;;4940244;29;20111;-74
2022/10/21 09:39:13;;;;;;;24.48;12.32;;;;;;;;;;4940012;29;20423;-74
2022/10/21 09:41:47;;;;;;;24.92;11.32;;;;;;;;;;4937162;29;20066;-74
2022/10/21 09:44:16;;;;;;;25.75;12.48;;;;;;;;;;4931248;29;20111;-74
2022/10/21 09:46:44;;;;;;;20.38;10.93;;;;;;;;;;4928714;29;20038;-74
2022/10/21 09:49:16;;;;;;;18.67;10.63;;;;;;;;;;4929713;29;20446;-74
2022/10/21 09:51:44;;;;;;;18.67;10.68;;;;;;;;;;4932821;29;20482;-74
2022/10/21 09:54:15;;;;;;;19.63;11.20;;;;;;;;;;4929527;29;20028;-74
2022/10/21 09:56:55;;;;;;;17.77;10.05;;;;;;;;;;4939090;29;20035;-74
2022/10/21 09:59:24;;;;;;;17.83;9.40;;;;;;;;;;4998607;28;20044;-74
2022/10/21 10:01:50;;;;;;;20.75;10.00;;;;;;;;;;5017139;28;20356;-74
2022/10/21 10:04:29;;;;;;;14.02;8.82;;;;;;;;;;5017833;28;20030;-74
2022/10/21 10:06:55;;;;;;;19.08;9.70;;;;;;;;;;5017320;28;20014;-74
2022/10/21 10:09:32;;;;;;;18.75;9.27;;;;;;;;;;5019469;28;20060;-74
2022/10/21 10:12:01;;;;;;;15.75;9.00;;;;;;;;;;5019303;28;20412;-74
2022/10/21 10:14:32;;;;;;;20.83;8.85;;;;;;;;;;5019500;28;20030;-74
2022/10/21 10:17:17;;;;;;;19.90;8.95;;;;;;;;;;5019094;28;20026;-74
2022/10/21 10:19:44;;;;;;;17.75;8.40;;;;;;;;;;5019210;28;20022;-74
2022/10/21 10:22:13;;;;;;;23.00;9.50;;;;;;;;;;5019091;28;20029;-74
2022/10/21 10:24:40;;;;;;;18.77;9.18;;;;;;;;;;5038309;28;20049;-74
2022/10/21 10:27:27;;;;;;;22.23;9.43;;;;;;;;;;5038729;28;20426;-74
2022/10/21 10:29:54;;;;;;;22.27;8.20;;;;;;;;;;5038742;28;20063;-74
2022/10/21 10:32:22;;;;;;;17.58;10.25;;;;;;;;;;5038780;28;20124;-74
2022/10/21 10:34:53;;;;;;;20.02;10.68;;;;;;;;;;5038564;28;20350;-74
2022/10/21 10:37:23;;;;;;;14.38;8.68;;;;;;;;;;5038766;28;20021;-74
2022/10/21 10:39:54;;;;;;;21.42;12.80;;;;;;;;;;5038684;28;20026;-74
2022/10/21 10:42:25;;;;;;;22.88;11.50;;;;;;;;;;5026835;28;20033;-74
2022/10/21 10:44:52;;;;;;;18.40;9.07;;;;;;;;;;5018682;28;20033;-74
2022/10/21 10:47:24;;;;;;;14.15;8.05;;;;;;;;;;5018456;28;20042;-74
2022/10/21 10:49:50;;;;;;;;;;;;;;;;;;5018935;28;20018;-74
2022/10/21 10:52:21;;;;;;;17.05;9.85;;;;;;;;;;5018413;28;20195;-74
2022/10/21 10:54:48;;;;;;;18.70;9.50;;;;;;;;;;5017222;28;20033;-75
2022/10/21 10:57:25;;;;;;;12.38;8.40;;;;;;;;;;5016803;28;20041;-74
2022/10/21 11:00:07;;;;;;;12.15;8.13;;;;;;;;;;5018508;28;20026;-74
2022/10/21 11:02:45;;;;;;;15.63;8.47;;;;;;;;;;5018450;28;20090;-74
2022/10/21 11:05:22;;;;;;;18.10;9.20;;;;;;;;;;5017602;28;20298;-74
2022/10/21 11:07:50;;;;;;;14.95;8.88;;;;;;;;;;5017284;28;20064;-74
2022/10/21 11:10:29;;;;;;;13.00;7.90;;;;;;;;;;5017135;28;20320;-76
2022/10/21 11:12:55;;;;;;;20.88;8.63;;;;;;;;;;5018342;28;20037;-77
2022/10/21 11:17:13;;;;;;;16.10;8.23;;;;;;;;;;5107465;27;20444;-78
2022/10/21 11:19:39;;;;;;;20.23;8.48;;;;;;;;;;5073179;28;20115;-79
2022/10/21 11:22:13;;;;;;;25.42;13.45;;;;;;;;;;5074393;28;20056;-78
2022/10/21 11:24:39;;;;;;;27.67;11.48;;;;;;;;;;5073210;28;20052;-78
2022/10/21 11:27:10;;;;;;;16.38;8.80;;;;;;;;;;5073136;28;20083;-79
2022/10/21 11:29:42;;;;;;;23.95;10.60;;;;;;;;;;5073150;28;20060;-79
2022/10/21 11:32:15;;;;;;;28.88;11.23;;;;;;;;;;5074078;28;20514;-79
2022/10/21 11:34:59;;;;;;;18.13;10.23;;;;;;;;;;5074044;28;20100;-79
2022/10/21 11:37:25;;;;;;;23.02;8.82;;;;;;;;;;5074194;28;20017;-80
2022/10/21 11:39:54;;;;;;;29.42;10.05;;;;;;;;;;5074400;28;20108;-82
2022/10/21 11:42:30;;;;;;;25.05;9.35;;;;;;;;;;5074685;28;20025;-84
2022/10/21 11:44:58;;;;;;;28.13;10.57;;;;;;;;;;5074361;28;20422;-81
2022/10/21 11:47:24;;;;;;;22.50;8.63;;;;;;;;;;5074158;28;20062;-81
2022/10/21 11:49:59;;;;;;;13.73;8.20;;;;;;;;;;5073864;28;20021;-79
2022/10/21 11:52:43;;;;;;;13.23;8.88;;;;;;;;;;5073437;28;20105;-80
2022/10/21 11:55:11;;;;;;;14.45;8.70;;;;;;;;;;5073682;28;20032;-89
2022/10/21 11:57:39;;;;;;;29.90;10.25;;;;;;;;;;5073753;28;20099;-74
2022/10/21 12:00:12;;;;;;;17.00;8.77;;;;;;;;;;5072874;28;20028;-74
2022/10/21 12:02:44;;;;;;;81.82;12.10;;;;;;;;;;5073500;28;20024;-74
2022/10/21 12:05:19;;;;;;;48.72;10.25;;;;;;;;;;5073419;28;20035;-74
2022/10/21 12:08:04;;;;;;;48.70;10.45;;;;;;;;;;5072652;28;20487;-74
2022/10/21 12:10:42;;;;;;;34.80;9.68;;;;;;;;;;5073184;28;20107;-74
2022/10/21 12:13:12;;;;;;;22.00;9.07;;;;;;;;;;5073347;28;20029;-73
2022/10/21 12:15:44;;;;;;;24.10;8.82;;;;;;;;;;5064656;28;20045;-74
2022/10/21 12:18:13;;;;;;;23.55;8.70;;;;;;;;;;5059505;28;20021;-74
2022/10/21 12:20:40;;;;;;;15.18;8.10;;;;;;;;;;5066861;28;20021;-74
2022/10/21 12:23:07;;;;;;;21.27;8.68;;;;;;;;;;5072087;28;20045;-74
2022/10/21 12:25:37;;;;;;;19.08;8.50;;;;;;;;;;5073118;28;20445;-75
2022/10/21 12:28:10;;;;;;;17.65;8.60;;;;;;;;;;5054654;28;20029;-74
2022/10/21 12:30:36;;;;;;;17.40;8.48;;;;;;;;;;5041219;28;20025;-74
2022/10/21 12:33:16;;;;;;;18.73;8.20;;;;;;;;;;5039763;28;20351;-74
2022/10/21 12:35:57;;;;;;;15.52;8.13;;;;;;;;;;5041008;28;20347;-74
2022/10/21 12:38:43;;;;;;;16.30;9.02;;;;;;;;;;5039328;28;20026;-75
2022/10/21 12:41:28;;;;;;;17.83;9.57;;;;;;;;;;5041389;28;20025;-74
2022/10/21 12:44:03;;;;;;;20.35;8.95;;;;;;;;;;5060622;28;20436;-75
2022/10/21 12:46:31;;;;;;;19.90;7.90;;;;;;;;;;5067344;28;20029;-74
2022/10/21 12:48:59;;;;;;;14.23;8.50;;;;;;;;;;5040347;28;20036;-75
2022/10/21 12:51:27;;;;;;;24.42;8.93;;;;;;;;;;5039216;28;20033;-75
2022/10/21 12:53:56;;;;;;;23.33;8.95;;;;;;;;;;5042808;28;20056;-75
2022/10/21 12:56:27;;;;;;;17.45;8.65;;;;;;;;;;5053323;28;20048;-81
2022/10/21 12:59:02;;;;;;;13.27;7.50;;;;;;;;;;5039464;28;20296;-75
2022/10/21 13:01:45;;;;;;;24.05;9.52;;;;;;;;;;5064040;28;20330;-75
2022/10/21 13:04:29;;;;;;;15.82;7.93;;;;;;;;;;5063710;28;20028;-75
2022/10/21 13:06:56;;;;;;;17.55;7.13;;;;;;;;;;5059083;28;20025;-75
2022/10/21 13:09:31;;;;;;;16.13;8.27;;;;;;;;;;5058284;28;20041;-76
2022/10/21 13:12:10;;;;;;;19.90;9.82;;;;;;;;;;5059033;28;20021;-75
2022/10/21 13:14:45;;;;;;;22.33;9.05;;;;;;;;;;5058801;28;20074;-75
2022/10/21 13:17:14;;;;;;;27.63;11.25;;;;;;;;;;5058642;28;20326;-75
2022/10/21 13:19:40;;;;;;;28.15;13.32;;;;;;;;;;5058802;28;20017;-76
2022/10/21 13:22:14;;;;;;;26.85;12.60;;;;;;;;;;5058912;28;20430;-75
2022/10/21 13:24:40;;;;;;;19.15;10.30;;;;;;;;;;5058896;28;20025;-75
2022/10/21 13:27:25;;;;;;;19.55;9.05;;;;;;;;;;5058056;28;20040;-75
2022/10/21 13:29:52;;;;;;;28.05;10.68;;;;;;;;;;5058885;28;20021;-75
2022/10/21 13:32:29;;;;;;;18.38;9.85;;;;;;;;;;5058607;28;20021;-75
2022/10/21 13:34:55;;;;;;;32.28;14.32;;;;;;;;;;5058520;28;20025;-75
2022/10/21 13:37:40;;;;;;;26.77;13.65;;;;;;;;;;5058602;28;20032;-75
2022/10/21 13:40:12;;;;;;;58.92;39.22;;;;;;;;;;5057615;28;20017;-75
2022/10/21 13:42:38;;;;;;;;;;;;;;;;;;5058964;28;20024;-75
2022/10/21 13:45:07;;;;;;;29.80;10.48;;;;;;;;;;5058329;28;19913;-75
2022/10/21 13:47:35;;;;;;;18.40;8.93;;;;;;;;;;5057035;28;20037;-75
2022/10/21 13:50:10;;;;;;;22.08;9.63;;;;;;;;;;5058130;28;20024;-75
2022/10/21 13:52:36;;;;;;;23.20;8.32;;;;;;;;;;5058440;28;20033;-75
2022/10/21 13:55:03;;;;;;;26.42;8.73;;;;;;;;;;5058110;28;20025;-75
2022/10/21 13:57:33;;;;;;;18.38;7.90;;;;;;;;;;5058216;28;20032;-76
2022/10/21 14:00:01;;;;;;;28.50;10.88;;;;;;;;;;5058133;28;20021;-75
2022/10/21 14:02:27;;;;;;;19.15;8.82;;;;;;;;;;5057916;28;20291;-75
2022/10/21 14:04:53;;;;;;;18.48;9.23;;;;;;;;;;5058183;28;20029;-75
2022/10/21 14:07:19;;;;;;;17.05;9.00;;;;;;;;;;5058214;28;20021;-75
2022/10/21 14:09:47;;;;;;;17.75;8.52;;;;;;;;;;5057891;28;20020;-75
2022/10/21 14:12:19;;;;;;;29.75;9.55;;;;;;;;;;5056778;28;20029;-75
2022/10/21 14:14:46;;;;;;;19.08;8.05;;;;;;;;;;5057755;28;20025;-75
2022/10/21 14:17:16;;;;;;;20.38;8.68;;;;;;;;;;5057732;28;20453;-75
2022/10/21 14:19:46;;;;;;;20.75;9.25;;;;;;;;;;5057957;28;20036;-74
2022/10/21 14:22:16;;;;;;;23.67;9.65;;;;;;;;;;5057740;28;20029;-74
2022/10/21 14:24:47;;;;;;;20.38;9.38;;;;;;;;;;5057635;28;20033;-74
2022/10/21 14:27:18;;;;;;;27.30;12.23;;;;;;;;;;5057769;28;20039;-74
2022/10/21 14:29:44;;;;;;;17.97;9.10;;;;;;;;;;5057552;28;20418;-75
2022/10/21 14:32:13;;;;;;;16.80;8.63;;;;;;;;;;5057676;28;20280;-74
2022/10/21 14:35:00;;;;;;;51.92;24.85;;;;;;;;;;5057657;28;20021;-74